sensor_id;sensor_type;location;lat;lon;timestamp;P1;durP1;ratioP1;P2;durP2;ratioP2
45842;SDS011;31563;51.744;8.252;2023-12-20T00:00:41;0.90;;;0.73;;
45842;SDS011;31563;51.744;8.252;2023-12-20T00:03:09;0.73;;;0.73;;
45842;SDS011;31563;51.744;8.252;2023-12-20T00:05:36;0.90;;;0.80;;
45842;SDS011;31563;51.744;8.252;2023-12-20T00:08:07;0.80;;;0.70;;
45842;SDS011;31563;51.744;8.252;2023-12-20T00:10:35;0.75;;;0.70;;
45842;SDS011;31563;51.744;8.252;2023-12-20T00:13:03;1.10;;;0.80;;
45842;SDS011;31563;51.744;8.252;2023-12-20T00:15:32;0.70;;;0.60;;
45842;SDS011;31563;51.744;8.252;2023-12-20T00:18:02;0.80;;;0.60;;
45842;SDS011;31563;51.744;8.252;2023-12-20T00:20:30;0.98;;;0.70;;
45842;SDS011;31563;51.744;8.252;2023-12-20T00:22:58;0.70;;;0.60;;
45842;SDS011;31563;51.744;8.252;2023-12-20T00:25:26;1.15;;;0.63;;
45842;SDS011;31563;51.744;8.252;2023-12-20T00:27:54;0.82;;;0.50;;
45842;SDS011;31563;51.744;8.252;2023-12-20T00:30:22;1.65;;;0.60;;
45842;SDS011;31563;51.744;8.252;2023-12-20T00:32:49;0.90;;;0.70;;
45842;SDS011;31563;51.744;8.252;2023-12-20T00:35:19;0.75;;;0.73;;
45842;SDS011;31563;51.744;8.252;2023-12-20T00:37:46;0.50;;;0.50;;
45842;SDS011;31563;51.744;8.252;2023-12-20T00:40:14;0.90;;;0.60;;
45842;SDS011;31563;51.744;8.252;2023-12-20T00:42:42;0.93;;;0.60;;
45842;SDS011;31563;51.744;8.252;2023-12-20T00:45:10;1.00;;;0.70;;
45842;SDS011;31563;51.744;8.252;2023-12-20T00:47:38;0.95;;;0.60;;
45842;SDS011;31563;51.744;8.252;2023-12-20T00:50:06;0.60;;;0.40;;
45842;SDS011;31563;51.744;8.252;2023-12-20T00:52:36;0.90;;;0.50;;
45842;SDS011;31563;51.744;8.252;2023-12-20T00:55:05;0.98;;;0.55;;
45842;SDS011;31563;51.744;8.252;2023-12-20T00:57:33;1.23;;;0.70;;
45842;SDS011;31563;51.744;8.252;2023-12-20T01:00:01;0.88;;;0.50;;
45842;SDS011;31563;51.744;8.252;2023-12-20T01:02:30;0.50;;;0.50;;
45842;SDS011;31563;51.744;8.252;2023-12-20T01:04:57;1.20;;;0.52;;
45842;SDS011;31563;51.744;8.252;2023-12-20T01:07:25;1.50;;;0.73;;
45842;SDS011;31563;51.744;8.252;2023-12-20T01:09:54;1.65;;;0.60;;
45842;SDS011;31563;51.744;8.252;2023-12-20T01:12:21;1.23;;;0.63;;
45842;SDS011;31563;51.744;8.252;2023-12-20T01:14:49;1.45;;;0.75;;
45842;SDS011;31563;51.744;8.252;2023-12-20T01:17:17;0.90;;;0.60;;
45842;SDS011;31563;51.744;8.252;2023-12-20T01:19:45;1.23;;;0.60;;
45842;SDS011;31563;51.744;8.252;2023-12-20T01:22:13;0.98;;;0.60;;
45842;SDS011;31563;51.744;8.252;2023-12-20T01:24:41;1.30;;;0.73;;
45842;SDS011;31563;51.744;8.252;2023-12-20T01:27:10;1.58;;;0.75;;
45842;SDS011;31563;51.744;8.252;2023-12-20T01:29:38;0.90;;;0.70;;
45842;SDS011;31563;51.744;8.252;2023-12-20T01:32:06;0.88;;;0.50;;
45842;SDS011;31563;51.744;8.252;2023-12-20T01:34:34;1.10;;;0.70;;
45842;SDS011;31563;51.744;8.252;2023-12-20T01:37:02;1.10;;;0.80;;
45842;SDS011;31563;51.744;8.252;2023-12-20T01:39:30;1.10;;;0.57;;
45842;SDS011;31563;51.744;8.252;2023-12-20T01:41:58;1.05;;;0.80;;
45842;SDS011;31563;51.744;8.252;2023-12-20T01:44:27;1.83;;;0.80;;
45842;SDS011;31563;51.744;8.252;2023-12-20T01:46:55;1.73;;;0.73;;
45842;SDS011;31563;51.744;8.252;2023-12-20T01:49:23;1.15;;;0.57;;
45842;SDS011;31563;51.744;8.252;2023-12-20T01:51:52;1.27;;;0.70;;
45842;SDS011;31563;51.744;8.252;2023-12-20T01:54:20;0.90;;;0.60;;
45842;SDS011;31563;51.744;8.252;2023-12-20T01:56:48;0.95;;;0.70;;
45842;SDS011;31563;51.744;8.252;2023-12-20T01:59:17;2.13;;;0.82;;
45842;SDS011;31563;51.744;8.252;2023-12-20T02:01:48;0.70;;;0.50;;
45842;SDS011;31563;51.744;8.252;2023-12-20T02:04:16;1.02;;;0.70;;
45842;SDS011;31563;51.744;8.252;2023-12-20T02:06:45;1.55;;;0.80;;
45842;SDS011;31563;51.744;8.252;2023-12-20T02:09:14;0.70;;;0.60;;
45842;SDS011;31563;51.744;8.252;2023-12-20T02:11:42;1.20;;;0.70;;
45842;SDS011;31563;51.744;8.252;2023-12-20T02:14:10;1.33;;;0.63;;
45842;SDS011;31563;51.744;8.252;2023-12-20T02:16:38;1.60;;;0.70;;
45842;SDS011;31563;51.744;8.252;2023-12-20T02:19:09;1.23;;;0.73;;
45842;SDS011;31563;51.744;8.252;2023-12-20T02:21:43;1.27;;;0.80;;
45842;SDS011;31563;51.744;8.252;2023-12-20T02:24:11;1.33;;;0.60;;
45842;SDS011;31563;51.744;8.252;2023-12-20T02:26:39;0.93;;;0.65;;
45842;SDS011;31563;51.744;8.252;2023-12-20T02:29:12;4.18;;;2.08;;
45842;SDS011;31563;51.744;8.252;2023-12-20T02:31:40;4.55;;;2.72;;
45842;SDS011;31563;51.744;8.252;2023-12-20T02:34:08;6.45;;;2.38;;
45842;SDS011;31563;51.744;8.252;2023-12-20T02:36:36;5.05;;;1.90;;
45842;SDS011;31563;51.744;8.252;2023-12-20T02:39:05;4.05;;;2.33;;
45842;SDS011;31563;51.744;8.252;2023-12-20T02:41:33;3.43;;;1.67;;
45842;SDS011;31563;51.744;8.252;2023-12-20T02:44:01;5.90;;;2.10;;
45842;SDS011;31563;51.744;8.252;2023-12-20T02:46:30;5.13;;;2.35;;
45842;SDS011;31563;51.744;8.252;2023-12-20T02:48:58;3.20;;;1.63;;
45842;SDS011;31563;51.744;8.252;2023-12-20T02:51:26;2.80;;;1.90;;
45842;SDS011;31563;51.744;8.252;2023-12-20T02:53:54;4.72;;;2.38;;
45842;SDS011;31563;51.744;8.252;2023-12-20T02:56:23;4.53;;;1.60;;
45842;SDS011;31563;51.744;8.252;2023-12-20T02:58:51;3.27;;;1.47;;
45842;SDS011;31563;51.744;8.252;2023-12-20T03:01:19;3.72;;;1.63;;
45842;SDS011;31563;51.744;8.252;2023-12-20T03:03:47;3.47;;;1.40;;
45842;SDS011;31563;51.744;8.252;2023-12-20T03:06:15;2.53;;;1.50;;
45842;SDS011;31563;51.744;8.252;2023-12-20T03:08:44;3.70;;;1.42;;
45842;SDS011;31563;51.744;8.252;2023-12-20T03:11:12;3.30;;;1.30;;
45842;SDS011;31563;51.744;8.252;2023-12-20T03:13:41;2.28;;;1.50;;
45842;SDS011;31563;51.744;8.252;2023-12-20T03:16:09;2.90;;;1.33;;
45842;SDS011;31563;51.744;8.252;2023-12-20T03:18:37;4.15;;;1.42;;
45842;SDS011;31563;51.744;8.252;2023-12-20T03:21:05;4.82;;;1.98;;
45842;SDS011;31563;51.744;8.252;2023-12-20T03:23:33;2.65;;;1.15;;
45842;SDS011;31563;51.744;8.252;2023-12-20T03:26:01;4.82;;;1.52;;
45842;SDS011;31563;51.744;8.252;2023-12-20T03:28:29;3.22;;;1.33;;
45842;SDS011;31563;51.744;8.252;2023-12-20T03:30:58;2.28;;;0.90;;
45842;SDS011;31563;51.744;8.252;2023-12-20T03:33:26;3.05;;;1.52;;
45842;SDS011;31563;51.744;8.252;2023-12-20T03:35:55;3.47;;;1.40;;
45842;SDS011;31563;51.744;8.252;2023-12-20T03:38:22;3.15;;;1.02;;
45842;SDS011;31563;51.744;8.252;2023-12-20T03:40:50;1.92;;;0.95;;
45842;SDS011;31563;51.744;8.252;2023-12-20T03:43:18;4.05;;;1.00;;
45842;SDS011;31563;51.744;8.252;2023-12-20T03:45:46;2.50;;;1.20;;
45842;SDS011;31563;51.744;8.252;2023-12-20T03:48:15;2.53;;;0.95;;
45842;SDS011;31563;51.744;8.252;2023-12-20T03:50:43;1.93;;;1.00;;
45842;SDS011;31563;51.744;8.252;2023-12-20T03:53:11;2.20;;;1.20;;
45842;SDS011;31563;51.744;8.252;2023-12-20T03:55:39;2.22;;;1.08;;
45842;SDS011;31563;51.744;8.252;2023-12-20T03:58:07;2.92;;;0.98;;
45842;SDS011;31563;51.744;8.252;2023-12-20T04:00:35;1.83;;;0.88;;
45842;SDS011;31563;51.744;8.252;2023-12-20T04:03:03;4.47;;;1.45;;
45842;SDS011;31563;51.744;8.252;2023-12-20T04:05:32;2.33;;;1.23;;
45842;SDS011;31563;51.744;8.252;2023-12-20T04:08:01;3.40;;;1.27;;
45842;SDS011;31563;51.744;8.252;2023-12-20T04:10:30;1.63;;;0.80;;
45842;SDS011;31563;51.744;8.252;2023-12-20T04:12:58;3.00;;;1.20;;
45842;SDS011;31563;51.744;8.252;2023-12-20T04:15:26;2.38;;;0.85;;
45842;SDS011;31563;51.744;8.252;2023-12-20T04:17:53;3.38;;;1.08;;
45842;SDS011;31563;51.744;8.252;2023-12-20T04:20:21;2.47;;;1.10;;
45842;SDS011;31563;51.744;8.252;2023-12-20T04:22:51;3.22;;;1.02;;
45842;SDS011;31563;51.744;8.252;2023-12-20T04:25:18;3.13;;;1.13;;
45842;SDS011;31563;51.744;8.252;2023-12-20T04:27:46;4.57;;;1.35;;
45842;SDS011;31563;51.744;8.252;2023-12-20T04:30:14;3.13;;;1.20;;
45842;SDS011;31563;51.744;8.252;2023-12-20T04:32:42;3.92;;;1.10;;
45842;SDS011;31563;51.744;8.252;2023-12-20T04:35:10;3.22;;;1.30;;
45842;SDS011;31563;51.744;8.252;2023-12-20T04:37:38;6.22;;;1.20;;
45842;SDS011;31563;51.744;8.252;2023-12-20T04:40:08;3.83;;;1.30;;
45842;SDS011;31563;51.744;8.252;2023-12-20T04:42:36;2.72;;;1.00;;
45842;SDS011;31563;51.744;8.252;2023-12-20T04:45:04;2.67;;;0.98;;
45842;SDS011;31563;51.744;8.252;2023-12-20T04:47:33;4.28;;;1.35;;
45842;SDS011;31563;51.744;8.252;2023-12-20T04:50:01;4.25;;;1.33;;
45842;SDS011;31563;51.744;8.252;2023-12-20T04:52:29;3.28;;;0.95;;
45842;SDS011;31563;51.744;8.252;2023-12-20T04:54:57;4.47;;;1.08;;
45842;SDS011;31563;51.744;8.252;2023-12-20T04:57:27;3.67;;;1.15;;
45842;SDS011;31563;51.744;8.252;2023-12-20T04:59:54;4.10;;;0.97;;
45842;SDS011;31563;51.744;8.252;2023-12-20T05:02:22;3.35;;;1.10;;
45842;SDS011;31563;51.744;8.252;2023-12-20T05:04:50;5.25;;;1.83;;
45842;SDS011;31563;51.744;8.252;2023-12-20T05:07:21;3.55;;;1.08;;
45842;SDS011;31563;51.744;8.252;2023-12-20T05:09:49;4.07;;;1.30;;
45842;SDS011;31563;51.744;8.252;2023-12-20T05:12:17;4.68;;;1.38;;
45842;SDS011;31563;51.744;8.252;2023-12-20T05:14:46;5.30;;;1.67;;
45842;SDS011;31563;51.744;8.252;2023-12-20T05:17:14;6.60;;;2.23;;
45842;SDS011;31563;51.744;8.252;2023-12-20T05:19:42;5.15;;;1.48;;
45842;SDS011;31563;51.744;8.252;2023-12-20T05:22:09;4.30;;;1.42;;
45842;SDS011;31563;51.744;8.252;2023-12-20T05:24:37;5.00;;;1.40;;
45842;SDS011;31563;51.744;8.252;2023-12-20T05:27:05;5.82;;;1.88;;
45842;SDS011;31563;51.744;8.252;2023-12-20T05:29:33;5.82;;;1.70;;
45842;SDS011;31563;51.744;8.252;2023-12-20T05:32:02;6.40;;;2.05;;
45842;SDS011;31563;51.744;8.252;2023-12-20T05:36:59;4.20;;;1.65;;
45842;SDS011;31563;51.744;8.252;2023-12-20T05:39:27;4.13;;;1.60;;
45842;SDS011;31563;51.744;8.252;2023-12-20T05:41:57;4.97;;;1.67;;
45842;SDS011;31563;51.744;8.252;2023-12-20T05:44:24;3.50;;;1.30;;
45842;SDS011;31563;51.744;8.252;2023-12-20T05:46:52;3.65;;;1.75;;
45842;SDS011;31563;51.744;8.252;2023-12-20T05:49:21;4.13;;;1.58;;
45842;SDS011;31563;51.744;8.252;2023-12-20T05:51:50;4.88;;;1.63;;
45842;SDS011;31563;51.744;8.252;2023-12-20T05:54:17;4.43;;;1.88;;
45842;SDS011;31563;51.744;8.252;2023-12-20T05:56:45;8.77;;;3.22;;
45842;SDS011;31563;51.744;8.252;2023-12-20T05:59:13;12.23;;;3.95;;
45842;SDS011;31563;51.744;8.252;2023-12-20T06:01:41;13.27;;;4.45;;
45842;SDS011;31563;51.744;8.252;2023-12-20T06:04:09;11.60;;;4.43;;
45842;SDS011;31563;51.744;8.252;2023-12-20T06:06:41;13.70;;;5.10;;
45842;SDS011;31563;51.744;8.252;2023-12-20T06:09:10;10.60;;;4.53;;
45842;SDS011;31563;51.744;8.252;2023-12-20T06:11:38;9.75;;;4.28;;
45842;SDS011;31563;51.744;8.252;2023-12-20T06:14:06;11.32;;;4.80;;
45842;SDS011;31563;51.744;8.252;2023-12-20T06:16:34;10.82;;;3.63;;
45842;SDS011;31563;51.744;8.252;2023-12-20T06:19:02;8.82;;;3.40;;
45842;SDS011;31563;51.744;8.252;2023-12-20T06:21:30;10.63;;;3.83;;
45842;SDS011;31563;51.744;8.252;2023-12-20T06:23:59;11.13;;;4.00;;
45842;SDS011;31563;51.744;8.252;2023-12-20T06:26:27;11.17;;;3.40;;
45842;SDS011;31563;51.744;8.252;2023-12-20T06:28:55;9.82;;;3.63;;
45842;SDS011;31563;51.744;8.252;2023-12-20T06:31:23;13.55;;;3.55;;
45842;SDS011;31563;51.744;8.252;2023-12-20T06:33:51;9.90;;;3.08;;
45842;SDS011;31563;51.744;8.252;2023-12-20T06:36:24;8.13;;;3.05;;
45842;SDS011;31563;51.744;8.252;2023-12-20T06:38:51;9.75;;;3.33;;
45842;SDS011;31563;51.744;8.252;2023-12-20T06:41:20;8.38;;;2.83;;
45842;SDS011;31563;51.744;8.252;2023-12-20T06:43:50;7.00;;;2.97;;
45842;SDS011;31563;51.744;8.252;2023-12-20T06:46:19;6.60;;;2.78;;
45842;SDS011;31563;51.744;8.252;2023-12-20T06:48:47;8.55;;;3.10;;
45842;SDS011;31563;51.744;8.252;2023-12-20T06:51:16;10.05;;;2.95;;
45842;SDS011;31563;51.744;8.252;2023-12-20T06:53:45;9.45;;;4.38;;
45842;SDS011;31563;51.744;8.252;2023-12-20T06:56:13;13.25;;;4.68;;
45842;SDS011;31563;51.744;8.252;2023-12-20T06:58:46;12.05;;;4.43;;
45842;SDS011;31563;51.744;8.252;2023-12-20T07:01:14;13.13;;;4.90;;
45842;SDS011;31563;51.744;8.252;2023-12-20T07:03:43;10.40;;;4.82;;
45842;SDS011;31563;51.744;8.252;2023-12-20T07:06:11;12.23;;;3.80;;
45842;SDS011;31563;51.744;8.252;2023-12-20T07:08:40;10.63;;;3.83;;
45842;SDS011;31563;51.744;8.252;2023-12-20T07:11:08;12.40;;;3.97;;
45842;SDS011;31563;51.744;8.252;2023-12-20T07:13:36;8.88;;;3.33;;
45842;SDS011;31563;51.744;8.252;2023-12-20T07:16:05;10.77;;;3.83;;
45842;SDS011;31563;51.744;8.252;2023-12-20T07:18:33;11.38;;;3.40;;
45842;SDS011;31563;51.744;8.252;2023-12-20T07:21:01;7.60;;;3.22;;
45842;SDS011;31563;51.744;8.252;2023-12-20T07:23:29;9.70;;;3.22;;
45842;SDS011;31563;51.744;8.252;2023-12-20T07:25:57;9.05;;;2.88;;
45842;SDS011;31563;51.744;8.252;2023-12-20T07:28:25;9.63;;;3.47;;
45842;SDS011;31563;51.744;8.252;2023-12-20T07:30:53;8.93;;;3.58;;
45842;SDS011;31563;51.744;8.252;2023-12-20T07:33:22;7.63;;;3.08;;
45842;SDS011;31563;51.744;8.252;2023-12-20T07:35:50;9.52;;;2.88;;
45842;SDS011;31563;51.744;8.252;2023-12-20T07:38:19;9.55;;;2.70;;
45842;SDS011;31563;51.744;8.252;2023-12-20T07:40:46;7.78;;;3.40;;
45842;SDS011;31563;51.744;8.252;2023-12-20T07:43:14;6.70;;;2.63;;
45842;SDS011;31563;51.744;8.252;2023-12-20T07:45:42;6.40;;;2.83;;
45842;SDS011;31563;51.744;8.252;2023-12-20T07:48:10;6.85;;;2.58;;
45842;SDS011;31563;51.744;8.252;2023-12-20T07:50:39;6.25;;;2.47;;
45842;SDS011;31563;51.744;8.252;2023-12-20T07:53:08;6.10;;;2.50;;
45842;SDS011;31563;51.744;8.252;2023-12-20T07:55:36;7.78;;;2.72;;
45842;SDS011;31563;51.744;8.252;2023-12-20T07:58:03;6.45;;;2.38;;
45842;SDS011;31563;51.744;8.252;2023-12-20T08:00:32;7.05;;;2.72;;
45842;SDS011;31563;51.744;8.252;2023-12-20T08:03:00;8.25;;;2.58;;
45842;SDS011;31563;51.744;8.252;2023-12-20T08:05:29;9.57;;;2.95;;
45842;SDS011;31563;51.744;8.252;2023-12-20T08:07:58;8.18;;;2.63;;
45842;SDS011;31563;51.744;8.252;2023-12-20T08:10:27;5.97;;;2.30;;
45842;SDS011;31563;51.744;8.252;2023-12-20T08:12:56;7.17;;;2.40;;
45842;SDS011;31563;51.744;8.252;2023-12-20T08:15:24;7.88;;;2.55;;
45842;SDS011;31563;51.744;8.252;2023-12-20T08:17:52;7.13;;;2.53;;
45842;SDS011;31563;51.744;8.252;2023-12-20T08:20:20;6.43;;;2.50;;
45842;SDS011;31563;51.744;8.252;2023-12-20T08:22:59;9.25;;;3.13;;
45842;SDS011;31563;51.744;8.252;2023-12-20T08:25:27;6.78;;;2.50;;
45842;SDS011;31563;51.744;8.252;2023-12-20T08:27:55;7.53;;;2.85;;
45842;SDS011;31563;51.744;8.252;2023-12-20T08:30:23;5.35;;;2.35;;
45842;SDS011;31563;51.744;8.252;2023-12-20T08:32:51;6.65;;;2.35;;
45842;SDS011;31563;51.744;8.252;2023-12-20T08:35:19;7.50;;;2.40;;
45842;SDS011;31563;51.744;8.252;2023-12-20T08:37:47;6.25;;;2.42;;
45842;SDS011;31563;51.744;8.252;2023-12-20T08:40:16;7.30;;;2.22;;
45842;SDS011;31563;51.744;8.252;2023-12-20T08:42:44;5.80;;;2.28;;
45842;SDS011;31563;51.744;8.252;2023-12-20T08:45:13;5.30;;;2.10;;
45842;SDS011;31563;51.744;8.252;2023-12-20T08:47:41;6.28;;;2.35;;
45842;SDS011;31563;51.744;8.252;2023-12-20T08:50:11;9.23;;;2.65;;
45842;SDS011;31563;51.744;8.252;2023-12-20T08:52:40;6.15;;;1.95;;
45842;SDS011;31563;51.744;8.252;2023-12-20T08:55:08;6.43;;;2.38;;
45842;SDS011;31563;51.744;8.252;2023-12-20T08:57:38;6.97;;;2.40;;
45842;SDS011;31563;51.744;8.252;2023-12-20T09:00:07;7.68;;;2.35;;
45842;SDS011;31563;51.744;8.252;2023-12-20T09:02:35;5.05;;;2.45;;
45842;SDS011;31563;51.744;8.252;2023-12-20T09:05:04;5.78;;;2.45;;
45842;SDS011;31563;51.744;8.252;2023-12-20T09:07:32;7.43;;;2.42;;
45842;SDS011;31563;51.744;8.252;2023-12-20T09:10:00;7.05;;;2.40;;
45842;SDS011;31563;51.744;8.252;2023-12-20T09:12:28;5.10;;;2.10;;
45842;SDS011;31563;51.744;8.252;2023-12-20T09:14:57;3.65;;;1.63;;
45842;SDS011;31563;51.744;8.252;2023-12-20T09:17:28;7.85;;;2.90;;
45842;SDS011;31563;51.744;8.252;2023-12-20T09:19:57;6.82;;;2.22;;
45842;SDS011;31563;51.744;8.252;2023-12-20T09:22:26;6.57;;;2.25;;
45842;SDS011;31563;51.744;8.252;2023-12-20T09:24:54;4.18;;;1.70;;
45842;SDS011;31563;51.744;8.252;2023-12-20T09:27:22;6.75;;;2.30;;
45842;SDS011;31563;51.744;8.252;2023-12-20T09:29:49;5.57;;;2.10;;
45842;SDS011;31563;51.744;8.252;2023-12-20T09:32:18;7.13;;;2.03;;
45842;SDS011;31563;51.744;8.252;2023-12-20T09:34:47;4.57;;;2.38;;
45842;SDS011;31563;51.744;8.252;2023-12-20T09:37:15;8.65;;;2.65;;
45842;SDS011;31563;51.744;8.252;2023-12-20T09:39:43;6.03;;;2.42;;
45842;SDS011;31563;51.744;8.252;2023-12-20T09:42:11;6.90;;;2.50;;
45842;SDS011;31563;51.744;8.252;2023-12-20T09:44:43;6.00;;;2.20;;
45842;SDS011;31563;51.744;8.252;2023-12-20T09:47:13;5.30;;;2.25;;
45842;SDS011;31563;51.744;8.252;2023-12-20T09:49:44;5.85;;;2.10;;
45842;SDS011;31563;51.744;8.252;2023-12-20T09:52:13;6.25;;;2.08;;
45842;SDS011;31563;51.744;8.252;2023-12-20T09:54:43;5.97;;;2.05;;
45842;SDS011;31563;51.744;8.252;2023-12-20T09:57:11;4.72;;;1.88;;
45842;SDS011;31563;51.744;8.252;2023-12-20T09:59:39;7.35;;;2.40;;
45842;SDS011;31563;51.744;8.252;2023-12-20T10:02:08;5.90;;;1.80;;
45842;SDS011;31563;51.744;8.252;2023-12-20T10:04:41;4.60;;;1.80;;
45842;SDS011;31563;51.744;8.252;2023-12-20T10:07:13;5.93;;;2.20;;
45842;SDS011;31563;51.744;8.252;2023-12-20T10:09:42;10.30;;;3.72;;
45842;SDS011;31563;51.744;8.252;2023-12-20T10:12:12;12.35;;;3.90;;
45842;SDS011;31563;51.744;8.252;2023-12-20T10:14:40;10.18;;;3.70;;
45842;SDS011;31563;51.744;8.252;2023-12-20T10:17:08;10.18;;;3.65;;
45842;SDS011;31563;51.744;8.252;2023-12-20T10:19:36;13.68;;;3.90;;
45842;SDS011;31563;51.744;8.252;2023-12-20T10:22:06;14.15;;;4.07;;
45842;SDS011;31563;51.744;8.252;2023-12-20T10:24:34;12.13;;;3.93;;
45842;SDS011;31563;51.744;8.252;2023-12-20T10:27:02;9.65;;;4.07;;
45842;SDS011;31563;51.744;8.252;2023-12-20T10:29:32;16.35;;;3.13;;
45842;SDS011;31563;51.744;8.252;2023-12-20T10:32:21;11.68;;;3.88;;
45842;SDS011;31563;51.744;8.252;2023-12-20T10:34:51;12.10;;;3.58;;
45842;SDS011;31563;51.744;8.252;2023-12-20T10:37:21;12.65;;;3.65;;
45842;SDS011;31563;51.744;8.252;2023-12-20T10:39:50;12.77;;;4.35;;
45842;SDS011;31563;51.744;8.252;2023-12-20T10:42:23;11.75;;;3.60;;
45842;SDS011;31563;51.744;8.252;2023-12-20T10:44:53;14.85;;;4.35;;
45842;SDS011;31563;51.744;8.252;2023-12-20T10:47:21;10.50;;;3.90;;
45842;SDS011;31563;51.744;8.252;2023-12-20T10:49:52;9.40;;;3.22;;
45842;SDS011;31563;51.744;8.252;2023-12-20T10:52:22;10.30;;;3.08;;
45842;SDS011;31563;51.744;8.252;2023-12-20T10:54:51;11.27;;;3.00;;
45842;SDS011;31563;51.744;8.252;2023-12-20T10:57:20;9.20;;;3.00;;
45842;SDS011;31563;51.744;8.252;2023-12-20T10:59:49;9.23;;;3.10;;
45842;SDS011;31563;51.744;8.252;2023-12-20T11:02:21;8.70;;;2.72;;
45842;SDS011;31563;51.744;8.252;2023-12-20T11:04:51;11.77;;;3.10;;
45842;SDS011;31563;51.744;8.252;2023-12-20T11:07:28;7.32;;;2.55;;
45842;SDS011;31563;51.744;8.252;2023-12-20T11:10:00;8.15;;;2.78;;
45842;SDS011;31563;51.744;8.252;2023-12-20T11:12:39;9.95;;;2.95;;
45842;SDS011;31563;51.744;8.252;2023-12-20T11:15:14;8.68;;;3.00;;
45842;SDS011;31563;51.744;8.252;2023-12-20T11:17:44;6.65;;;2.28;;
45842;SDS011;31563;51.744;8.252;2023-12-20T11:20:17;8.02;;;2.60;;
45842;SDS011;31563;51.744;8.252;2023-12-20T11:22:54;9.65;;;2.95;;
45842;SDS011;31563;51.744;8.252;2023-12-20T11:25:23;7.80;;;2.67;;
45842;SDS011;31563;51.744;8.252;2023-12-20T11:28:08;8.02;;;2.65;;
45842;SDS011;31563;51.744;8.252;2023-12-20T11:30:41;6.35;;;2.55;;
45842;SDS011;31563;51.744;8.252;2023-12-20T11:33:09;7.47;;;2.50;;
45842;SDS011;31563;51.744;8.252;2023-12-20T11:35:37;6.43;;;2.25;;
45842;SDS011;31563;51.744;8.252;2023-12-20T11:38:09;8.32;;;2.42;;
45842;SDS011;31563;51.744;8.252;2023-12-20T11:43:05;5.50;;;2.00;;
45842;SDS011;31563;51.744;8.252;2023-12-20T11:45:33;7.32;;;2.55;;
45842;SDS011;31563;51.744;8.252;2023-12-20T11:48:02;5.45;;;2.13;;
45842;SDS011;31563;51.744;8.252;2023-12-20T11:50:30;7.20;;;2.97;;
45842;SDS011;31563;51.744;8.252;2023-12-20T11:52:58;7.97;;;2.55;;
45842;SDS011;31563;51.744;8.252;2023-12-20T11:55:27;7.25;;;2.28;;
45842;SDS011;31563;51.744;8.252;2023-12-20T11:57:55;5.47;;;2.03;;
45842;SDS011;31563;51.744;8.252;2023-12-20T12:00:24;6.72;;;2.45;;
45842;SDS011;31563;51.744;8.252;2023-12-20T12:02:55;5.53;;;2.13;;
45842;SDS011;31563;51.744;8.252;2023-12-20T12:05:24;7.25;;;2.45;;
45842;SDS011;31563;51.744;8.252;2023-12-20T12:07:53;5.47;;;2.33;;
45842;SDS011;31563;51.744;8.252;2023-12-20T12:10:21;6.38;;;2.17;;
45842;SDS011;31563;51.744;8.252;2023-12-20T12:12:50;5.53;;;2.40;;
45842;SDS011;31563;51.744;8.252;2023-12-20T12:15:19;5.10;;;2.25;;
45842;SDS011;31563;51.744;8.252;2023-12-20T12:17:52;8.23;;;2.70;;
45842;SDS011;31563;51.744;8.252;2023-12-20T12:20:21;5.03;;;2.30;;
45842;SDS011;31563;51.744;8.252;2023-12-20T12:22:57;6.20;;;1.77;;
45842;SDS011;31563;51.744;8.252;2023-12-20T12:25:25;5.18;;;2.03;;
45842;SDS011;31563;51.744;8.252;2023-12-20T12:27:56;5.22;;;1.70;;
45842;SDS011;31563;51.744;8.252;2023-12-20T12:30:25;6.72;;;2.00;;
45842;SDS011;31563;51.744;8.252;2023-12-20T12:33:00;5.00;;;1.92;;
45842;SDS011;31563;51.744;8.252;2023-12-20T12:35:28;5.10;;;1.88;;
45842;SDS011;31563;51.744;8.252;2023-12-20T12:37:58;5.70;;;1.92;;
45842;SDS011;31563;51.744;8.252;2023-12-20T12:40:26;4.03;;;1.75;;
45842;SDS011;31563;51.744;8.252;2023-12-20T12:42:55;8.27;;;2.55;;
45842;SDS011;31563;51.744;8.252;2023-12-20T12:45:23;5.57;;;2.10;;
45842;SDS011;31563;51.744;8.252;2023-12-20T12:47:53;5.28;;;2.05;;
45842;SDS011;31563;51.744;8.252;2023-12-20T12:50:21;6.00;;;1.95;;
45842;SDS011;31563;51.744;8.252;2023-12-20T12:52:49;4.50;;;1.85;;
45842;SDS011;31563;51.744;8.252;2023-12-20T12:55:17;5.38;;;1.83;;
45842;SDS011;31563;51.744;8.252;2023-12-20T12:57:45;5.53;;;1.98;;
45842;SDS011;31563;51.744;8.252;2023-12-20T13:00:14;6.45;;;2.38;;
45842;SDS011;31563;51.744;8.252;2023-12-20T13:02:42;4.65;;;1.52;;
45842;SDS011;31563;51.744;8.252;2023-12-20T13:05:10;4.82;;;2.08;;
45842;SDS011;31563;51.744;8.252;2023-12-20T13:07:38;3.22;;;1.38;;
45842;SDS011;31563;51.744;8.252;2023-12-20T13:10:07;4.25;;;1.60;;
45842;SDS011;31563;51.744;8.252;2023-12-20T13:12:37;3.42;;;1.50;;
45842;SDS011;31563;51.744;8.252;2023-12-20T13:15:05;3.72;;;1.52;;
45842;SDS011;31563;51.744;8.252;2023-12-20T13:17:34;5.03;;;1.60;;
45842;SDS011;31563;51.744;8.252;2023-12-20T13:20:04;7.30;;;2.72;;
45842;SDS011;31563;51.744;8.252;2023-12-20T13:22:33;7.20;;;2.80;;
45842;SDS011;31563;51.744;8.252;2023-12-20T13:25:02;11.00;;;3.07;;
45842;SDS011;31563;51.744;8.252;2023-12-20T13:27:30;7.80;;;2.72;;
45842;SDS011;31563;51.744;8.252;2023-12-20T13:29:58;9.27;;;2.92;;
45842;SDS011;31563;51.744;8.252;2023-12-20T13:32:26;10.02;;;2.78;;
45842;SDS011;31563;51.744;8.252;2023-12-20T13:34:56;5.80;;;2.50;;
45842;SDS011;31563;51.744;8.252;2023-12-20T13:37:24;7.95;;;2.50;;
45842;SDS011;31563;51.744;8.252;2023-12-20T13:39:52;6.80;;;2.42;;
45842;SDS011;31563;51.744;8.252;2023-12-20T13:42:19;6.50;;;2.15;;
45842;SDS011;31563;51.744;8.252;2023-12-20T13:44:47;5.68;;;2.60;;
45842;SDS011;31563;51.744;8.252;2023-12-20T13:47:15;6.32;;;2.05;;
45842;SDS011;31563;51.744;8.252;2023-12-20T13:49:45;6.80;;;2.55;;
45842;SDS011;31563;51.744;8.252;2023-12-20T13:52:14;6.15;;;2.45;;
45842;SDS011;31563;51.744;8.252;2023-12-20T13:54:42;7.13;;;2.33;;
45842;SDS011;31563;51.744;8.252;2023-12-20T13:57:10;6.03;;;2.45;;
45842;SDS011;31563;51.744;8.252;2023-12-20T13:59:56;7.13;;;2.40;;
45842;SDS011;31563;51.744;8.252;2023-12-20T14:02:24;7.53;;;2.47;;
45842;SDS011;31563;51.744;8.252;2023-12-20T14:04:53;5.00;;;2.17;;
45842;SDS011;31563;51.744;8.252;2023-12-20T14:07:22;5.95;;;2.05;;
45842;SDS011;31563;51.744;8.252;2023-12-20T14:09:50;4.60;;;2.25;;
45842;SDS011;31563;51.744;8.252;2023-12-20T14:12:18;6.95;;;2.42;;
45842;SDS011;31563;51.744;8.252;2023-12-20T14:14:46;5.82;;;2.28;;
45842;SDS011;31563;51.744;8.252;2023-12-20T14:17:14;7.25;;;3.05;;
45842;SDS011;31563;51.744;8.252;2023-12-20T14:19:42;4.50;;;2.50;;
45842;SDS011;31563;51.744;8.252;2023-12-20T14:22:10;5.60;;;2.40;;
45842;SDS011;31563;51.744;8.252;2023-12-20T14:24:39;6.22;;;2.17;;
45842;SDS011;31563;51.744;8.252;2023-12-20T14:27:07;6.73;;;2.30;;
45842;SDS011;31563;51.744;8.252;2023-12-20T14:29:35;6.10;;;2.67;;
45842;SDS011;31563;51.744;8.252;2023-12-20T14:32:04;5.93;;;2.97;;
45842;SDS011;31563;51.744;8.252;2023-12-20T14:34:32;6.10;;;2.55;;
45842;SDS011;31563;51.744;8.252;2023-12-20T14:37:00;7.50;;;2.72;;
45842;SDS011;31563;51.744;8.252;2023-12-20T14:39:28;5.93;;;2.30;;
45842;SDS011;31563;51.744;8.252;2023-12-20T14:41:57;5.45;;;2.10;;
45842;SDS011;31563;51.744;8.252;2023-12-20T14:44:25;4.50;;;2.00;;
45842;SDS011;31563;51.744;8.252;2023-12-20T14:46:53;7.03;;;2.47;;
45842;SDS011;31563;51.744;8.252;2023-12-20T14:49:21;7.00;;;2.20;;
45842;SDS011;31563;51.744;8.252;2023-12-20T14:51:48;6.13;;;2.55;;
45842;SDS011;31563;51.744;8.252;2023-12-20T14:54:16;4.80;;;2.10;;
45842;SDS011;31563;51.744;8.252;2023-12-20T14:56:44;4.93;;;2.30;;
45842;SDS011;31563;51.744;8.252;2023-12-20T14:59:13;6.68;;;2.22;;